sensor_id;sensor_type;location;lat;lon;timestamp;P1;durP1;ratioP1;P2;durP2;ratioP2
41333;SDS011;27078;46.428;6.256;2023-03-01T00:01:48;27.05;;;16.75;;
41333;SDS011;27078;46.428;6.256;2023-03-01T00:04:13;26.75;;;16.70;;
41333;SDS011;27078;46.428;6.256;2023-03-01T00:06:38;27.23;;;16.40;;
41333;SDS011;27078;46.428;6.256;2023-03-01T00:09:04;28.13;;;16.35;;
41333;SDS011;27078;46.428;6.256;2023-03-01T00:11:31;26.60;;;16.88;;
41333;SDS011;27078;46.428;6.256;2023-03-01T00:13:59;27.92;;;16.85;;
41333;SDS011;27078;46.428;6.256;2023-03-01T00:16:33;29.95;;;17.17;;
41333;SDS011;27078;46.428;6.256;2023-03-01T00:19:01;30.33;;;17.80;;
41333;SDS011;27078;46.428;6.256;2023-03-01T00:21:27;29.38;;;18.20;;
41333;SDS011;27078;46.428;6.256;2023-03-01T00:23:53;29.27;;;17.67;;
41333;SDS011;27078;46.428;6.256;2023-03-01T00:26:19;31.25;;;18.10;;
41333;SDS011;27078;46.428;6.256;2023-03-01T00:28:46;28.25;;;16.60;;
41333;SDS011;27078;46.428;6.256;2023-03-01T00:31:13;29.45;;;17.50;;
41333;SDS011;27078;46.428;6.256;2023-03-01T00:33:41;29.60;;;18.05;;
41333;SDS011;27078;46.428;6.256;2023-03-01T00:36:08;29.15;;;17.50;;
41333;SDS011;27078;46.428;6.256;2023-03-01T00:38:35;31.48;;;18.48;;
41333;SDS011;27078;46.428;6.256;2023-03-01T00:41:08;29.58;;;17.85;;
41333;SDS011;27078;46.428;6.256;2023-03-01T00:43:35;31.35;;;18.15;;
41333;SDS011;27078;46.428;6.256;2023-03-01T00:46:04;31.75;;;18.92;;
41333;SDS011;27078;46.428;6.256;2023-03-01T00:48:31;30.85;;;18.60;;
41333;SDS011;27078;46.428;6.256;2023-03-01T00:50:57;31.15;;;18.80;;
41333;SDS011;27078;46.428;6.256;2023-03-01T00:53:28;32.93;;;18.57;;
41333;SDS011;27078;46.428;6.256;2023-03-01T00:55:53;31.27;;;18.70;;
41333;SDS011;27078;46.428;6.256;2023-03-01T00:58:22;28.85;;;17.33;;
41333;SDS011;27078;46.428;6.256;2023-03-01T01:00:47;31.55;;;19.27;;
41333;SDS011;27078;46.428;6.256;2023-03-01T01:03:12;34.03;;;19.23;;
41333;SDS011;27078;46.428;6.256;2023-03-01T01:05:38;32.58;;;19.10;;
41333;SDS011;27078;46.428;6.256;2023-03-01T01:08:03;31.30;;;18.38;;
41333;SDS011;27078;46.428;6.256;2023-03-01T01:10:28;30.33;;;18.15;;
41333;SDS011;27078;46.428;6.256;2023-03-01T01:12:53;31.75;;;19.50;;
41333;SDS011;27078;46.428;6.256;2023-03-01T01:15:19;31.35;;;19.08;;
41333;SDS011;27078;46.428;6.256;2023-03-01T01:17:44;31.75;;;19.02;;
41333;SDS011;27078;46.428;6.256;2023-03-01T01:20:10;30.48;;;18.23;;
41333;SDS011;27078;46.428;6.256;2023-03-01T01:22:36;31.55;;;18.08;;
41333;SDS011;27078;46.428;6.256;2023-03-01T01:25:01;32.20;;;19.20;;
41333;SDS011;27078;46.428;6.256;2023-03-01T01:27:26;29.77;;;18.05;;
41333;SDS011;27078;46.428;6.256;2023-03-01T01:29:54;30.92;;;18.10;;
41333;SDS011;27078;46.428;6.256;2023-03-01T01:32:20;31.30;;;17.88;;
41333;SDS011;27078;46.428;6.256;2023-03-01T01:34:45;30.13;;;17.58;;
41333;SDS011;27078;46.428;6.256;2023-03-01T01:37:11;32.38;;;19.13;;
41333;SDS011;27078;46.428;6.256;2023-03-01T01:39:37;33.28;;;18.67;;
41333;SDS011;27078;46.428;6.256;2023-03-01T01:42:02;29.80;;;17.90;;
41333;SDS011;27078;46.428;6.256;2023-03-01T01:44:28;31.23;;;18.40;;
41333;SDS011;27078;46.428;6.256;2023-03-01T01:47:02;31.00;;;18.42;;
41333;SDS011;27078;46.428;6.256;2023-03-01T01:49:55;30.98;;;18.25;;
41333;SDS011;27078;46.428;6.256;2023-03-01T01:52:22;30.92;;;17.73;;
41333;SDS011;27078;46.428;6.256;2023-03-01T01:57:54;31.58;;;18.35;;
41333;SDS011;27078;46.428;6.256;2023-03-01T02:00:22;31.48;;;16.55;;
41333;SDS011;27078;46.428;6.256;2023-03-01T02:02:55;31.42;;;18.67;;
41333;SDS011;27078;46.428;6.256;2023-03-01T02:05:26;32.20;;;18.67;;
41333;SDS011;27078;46.428;6.256;2023-03-01T02:07:59;32.47;;;18.52;;
41333;SDS011;27078;46.428;6.256;2023-03-01T02:10:25;31.60;;;18.38;;
41333;SDS011;27078;46.428;6.256;2023-03-01T02:12:53;31.90;;;19.25;;
41333;SDS011;27078;46.428;6.256;2023-03-01T02:15:19;31.30;;;18.48;;
41333;SDS011;27078;46.428;6.256;2023-03-01T02:17:44;26.92;;;16.88;;
41333;SDS011;27078;46.428;6.256;2023-03-01T02:22:44;30.10;;;17.55;;
41333;SDS011;27078;46.428;6.256;2023-03-01T02:25:22;29.33;;;16.85;;
41333;SDS011;27078;46.428;6.256;2023-03-01T02:28:04;29.35;;;17.23;;
41333;SDS011;27078;46.428;6.256;2023-03-01T02:30:37;27.10;;;16.45;;
41333;SDS011;27078;46.428;6.256;2023-03-01T02:33:23;30.55;;;17.15;;
41333;SDS011;27078;46.428;6.256;2023-03-01T02:35:50;28.92;;;16.92;;
41333;SDS011;27078;46.428;6.256;2023-03-01T02:38:17;29.17;;;17.15;;
41333;SDS011;27078;46.428;6.256;2023-03-01T02:40:42;31.75;;;18.60;;
41333;SDS011;27078;46.428;6.256;2023-03-01T02:43:09;28.80;;;17.20;;
41333;SDS011;27078;46.428;6.256;2023-03-01T02:45:37;28.38;;;16.90;;
41333;SDS011;27078;46.428;6.256;2023-03-01T02:48:02;30.50;;;17.00;;
41333;SDS011;27078;46.428;6.256;2023-03-01T02:55:52;29.23;;;16.92;;
41333;SDS011;27078;46.428;6.256;2023-03-01T02:58:18;30.60;;;17.55;;
41333;SDS011;27078;46.428;6.256;2023-03-01T03:00:43;32.67;;;17.75;;
41333;SDS011;27078;46.428;6.256;2023-03-01T03:03:12;31.50;;;18.13;;
41333;SDS011;27078;46.428;6.256;2023-03-01T03:05:40;31.40;;;17.50;;
41333;SDS011;27078;46.428;6.256;2023-03-01T03:08:06;33.22;;;18.85;;
41333;SDS011;27078;46.428;6.256;2023-03-01T03:10:34;32.17;;;18.50;;
41333;SDS011;27078;46.428;6.256;2023-03-01T03:13:11;34.33;;;19.10;;
41333;SDS011;27078;46.428;6.256;2023-03-01T03:15:39;31.95;;;18.25;;
41333;SDS011;27078;46.428;6.256;2023-03-01T03:18:06;33.08;;;18.10;;
41333;SDS011;27078;46.428;6.256;2023-03-01T03:20:34;32.90;;;18.80;;
41333;SDS011;27078;46.428;6.256;2023-03-01T03:22:59;33.35;;;18.83;;
41333;SDS011;27078;46.428;6.256;2023-03-01T03:25:26;32.13;;;18.77;;
41333;SDS011;27078;46.428;6.256;2023-03-01T03:27:52;33.83;;;19.13;;
41333;SDS011;27078;46.428;6.256;2023-03-01T03:30:25;31.65;;;17.65;;
41333;SDS011;27078;46.428;6.256;2023-03-01T03:32:56;30.60;;;16.98;;
41333;SDS011;27078;46.428;6.256;2023-03-01T03:35:23;33.35;;;18.65;;
41333;SDS011;27078;46.428;6.256;2023-03-01T03:37:49;34.20;;;19.25;;
41333;SDS011;27078;46.428;6.256;2023-03-01T03:42:55;34.05;;;18.77;;
41333;SDS011;27078;46.428;6.256;2023-03-01T03:45:21;35.13;;;19.30;;
41333;SDS011;27078;46.428;6.256;2023-03-01T03:47:46;35.35;;;18.33;;
41333;SDS011;27078;46.428;6.256;2023-03-01T03:50:13;34.70;;;19.38;;
41333;SDS011;27078;46.428;6.256;2023-03-01T03:52:39;35.13;;;19.60;;
41333;SDS011;27078;46.428;6.256;2023-03-01T03:55:05;32.70;;;18.33;;
41333;SDS011;27078;46.428;6.256;2023-03-01T03:57:38;34.58;;;18.45;;
41333;SDS011;27078;46.428;6.256;2023-03-01T04:00:05;36.33;;;19.75;;
41333;SDS011;27078;46.428;6.256;2023-03-01T04:02:40;32.97;;;18.83;;
41333;SDS011;27078;46.428;6.256;2023-03-01T04:05:06;35.47;;;19.67;;
41333;SDS011;27078;46.428;6.256;2023-03-01T04:07:34;33.38;;;18.65;;
41333;SDS011;27078;46.428;6.256;2023-03-01T04:09:59;35.05;;;19.55;;
41333;SDS011;27078;46.428;6.256;2023-03-01T04:12:25;33.60;;;19.08;;
41333;SDS011;27078;46.428;6.256;2023-03-01T04:14:50;33.83;;;18.67;;
41333;SDS011;27078;46.428;6.256;2023-03-01T04:17:15;35.90;;;20.20;;
41333;SDS011;27078;46.428;6.256;2023-03-01T04:19:41;34.88;;;18.48;;
41333;SDS011;27078;46.428;6.256;2023-03-01T04:22:09;33.15;;;19.00;;
41333;SDS011;27078;46.428;6.256;2023-03-01T04:24:36;33.28;;;18.42;;
41333;SDS011;27078;46.428;6.256;2023-03-01T04:27:01;37.88;;;19.65;;
41333;SDS011;27078;46.428;6.256;2023-03-01T04:29:27;34.05;;;18.67;;
41333;SDS011;27078;46.428;6.256;2023-03-01T04:31:53;34.20;;;18.73;;
41333;SDS011;27078;46.428;6.256;2023-03-01T04:34:18;34.35;;;19.27;;
41333;SDS011;27078;46.428;6.256;2023-03-01T04:36:43;33.42;;;18.23;;
41333;SDS011;27078;46.428;6.256;2023-03-01T04:39:09;34.75;;;18.65;;
41333;SDS011;27078;46.428;6.256;2023-03-01T04:41:37;35.92;;;19.52;;
41333;SDS011;27078;46.428;6.256;2023-03-01T04:44:06;36.28;;;20.25;;
41333;SDS011;27078;46.428;6.256;2023-03-01T04:46:32;35.67;;;19.90;;
41333;SDS011;27078;46.428;6.256;2023-03-01T04:48:57;38.38;;;20.25;;
41333;SDS011;27078;46.428;6.256;2023-03-01T04:51:22;36.03;;;19.92;;
41333;SDS011;27078;46.428;6.256;2023-03-01T04:53:48;37.95;;;19.92;;
41333;SDS011;27078;46.428;6.256;2023-03-01T04:56:13;35.67;;;19.10;;
41333;SDS011;27078;46.428;6.256;2023-03-01T04:58:39;37.63;;;20.25;;
41333;SDS011;27078;46.428;6.256;2023-03-01T05:01:09;35.42;;;19.58;;
41333;SDS011;27078;46.428;6.256;2023-03-01T05:03:40;35.03;;;19.25;;
41333;SDS011;27078;46.428;6.256;2023-03-01T05:06:06;35.17;;;19.52;;
41333;SDS011;27078;46.428;6.256;2023-03-01T05:08:32;35.03;;;19.63;;
41333;SDS011;27078;46.428;6.256;2023-03-01T05:10:59;35.63;;;19.17;;
41333;SDS011;27078;46.428;6.256;2023-03-01T05:13:24;35.83;;;19.08;;
41333;SDS011;27078;46.428;6.256;2023-03-01T05:15:54;35.63;;;19.33;;
41333;SDS011;27078;46.428;6.256;2023-03-01T05:18:21;35.40;;;19.70;;
41333;SDS011;27078;46.428;6.256;2023-03-01T05:20:50;37.50;;;19.95;;
41333;SDS011;27078;46.428;6.256;2023-03-01T05:23:21;38.22;;;19.85;;
41333;SDS011;27078;46.428;6.256;2023-03-01T05:25:47;35.28;;;18.98;;
41333;SDS011;27078;46.428;6.256;2023-03-01T05:28:12;35.13;;;19.02;;
41333;SDS011;27078;46.428;6.256;2023-03-01T05:30:38;34.90;;;19.23;;
41333;SDS011;27078;46.428;6.256;2023-03-01T05:33:04;34.03;;;18.85;;
41333;SDS011;27078;46.428;6.256;2023-03-01T05:35:32;37.20;;;19.88;;
41333;SDS011;27078;46.428;6.256;2023-03-01T05:37:57;34.90;;;19.45;;
41333;SDS011;27078;46.428;6.256;2023-03-01T05:40:23;39.58;;;20.00;;
41333;SDS011;27078;46.428;6.256;2023-03-01T05:42:50;35.17;;;19.45;;
41333;SDS011;27078;46.428;6.256;2023-03-01T05:45:19;36.65;;;19.77;;
41333;SDS011;27078;46.428;6.256;2023-03-01T05:47:46;35.05;;;19.88;;
41333;SDS011;27078;46.428;6.256;2023-03-01T05:50:17;37.13;;;20.13;;
41333;SDS011;27078;46.428;6.256;2023-03-01T05:52:47;35.42;;;19.33;;
41333;SDS011;27078;46.428;6.256;2023-03-01T05:55:16;36.10;;;19.70;;
41333;SDS011;27078;46.428;6.256;2023-03-01T05:57:45;34.13;;;19.30;;
41333;SDS011;27078;46.428;6.256;2023-03-01T06:00:11;37.13;;;19.80;;
41333;SDS011;27078;46.428;6.256;2023-03-01T06:02:38;35.35;;;19.65;;
41333;SDS011;27078;46.428;6.256;2023-03-01T06:05:05;37.38;;;19.98;;
41333;SDS011;27078;46.428;6.256;2023-03-01T06:07:32;36.92;;;19.00;;
41333;SDS011;27078;46.428;6.256;2023-03-01T06:09:57;38.65;;;20.70;;
41333;SDS011;27078;46.428;6.256;2023-03-01T06:12:22;37.47;;;19.67;;
41333;SDS011;27078;46.428;6.256;2023-03-01T06:14:48;36.70;;;19.48;;
41333;SDS011;27078;46.428;6.256;2023-03-01T06:17:13;38.63;;;20.08;;
41333;SDS011;27078;46.428;6.256;2023-03-01T06:19:39;37.22;;;19.73;;
41333;SDS011;27078;46.428;6.256;2023-03-01T06:22:04;33.15;;;18.92;;
41333;SDS011;27078;46.428;6.256;2023-03-01T06:24:29;40.88;;;20.30;;
41333;SDS011;27078;46.428;6.256;2023-03-01T06:26:55;33.78;;;19.55;;
41333;SDS011;27078;46.428;6.256;2023-03-01T06:29:20;35.50;;;18.67;;
41333;SDS011;27078;46.428;6.256;2023-03-01T06:31:47;39.38;;;20.83;;
41333;SDS011;27078;46.428;6.256;2023-03-01T06:34:13;36.97;;;19.85;;
41333;SDS011;27078;46.428;6.256;2023-03-01T06:36:39;34.45;;;18.40;;
41333;SDS011;27078;46.428;6.256;2023-03-01T06:39:04;39.17;;;20.40;;
41333;SDS011;27078;46.428;6.256;2023-03-01T06:41:30;36.63;;;18.75;;
41333;SDS011;27078;46.428;6.256;2023-03-01T06:43:56;37.33;;;20.05;;
41333;SDS011;27078;46.428;6.256;2023-03-01T06:46:21;36.55;;;19.83;;
41333;SDS011;27078;46.428;6.256;2023-03-01T06:48:47;36.15;;;20.30;;
41333;SDS011;27078;46.428;6.256;2023-03-01T06:51:12;35.03;;;19.70;;
41333;SDS011;27078;46.428;6.256;2023-03-01T06:53:37;36.22;;;19.75;;
41333;SDS011;27078;46.428;6.256;2023-03-01T06:56:03;35.10;;;19.10;;
41333;SDS011;27078;46.428;6.256;2023-03-01T06:58:29;34.58;;;19.08;;
41333;SDS011;27078;46.428;6.256;2023-03-01T07:00:54;37.03;;;19.80;;
41333;SDS011;27078;46.428;6.256;2023-03-01T07:03:19;35.83;;;18.98;;
41333;SDS011;27078;46.428;6.256;2023-03-01T07:05:45;38.75;;;20.02;;
41333;SDS011;27078;46.428;6.256;2023-03-01T07:08:10;38.97;;;20.55;;
41333;SDS011;27078;46.428;6.256;2023-03-01T07:10:36;37.47;;;19.60;;
41333;SDS011;27078;46.428;6.256;2023-03-01T07:13:01;35.85;;;19.02;;
41333;SDS011;27078;46.428;6.256;2023-03-01T07:15:27;37.15;;;19.75;;
41333;SDS011;27078;46.428;6.256;2023-03-01T07:17:53;37.03;;;19.42;;
41333;SDS011;27078;46.428;6.256;2023-03-01T07:20:18;34.35;;;18.30;;
41333;SDS011;27078;46.428;6.256;2023-03-01T07:22:49;36.47;;;18.60;;
41333;SDS011;27078;46.428;6.256;2023-03-01T07:25:15;38.17;;;19.50;;
41333;SDS011;27078;46.428;6.256;2023-03-01T07:27:40;35.67;;;19.17;;
41333;SDS011;27078;46.428;6.256;2023-03-01T07:30:06;36.47;;;20.10;;
41333;SDS011;27078;46.428;6.256;2023-03-01T07:32:31;34.30;;;18.80;;
41333;SDS011;27078;46.428;6.256;2023-03-01T07:34:57;34.90;;;18.75;;
41333;SDS011;27078;46.428;6.256;2023-03-01T07:37:22;40.70;;;19.42;;
41333;SDS011;27078;46.428;6.256;2023-03-01T07:39:47;35.95;;;18.75;;
41333;SDS011;27078;46.428;6.256;2023-03-01T07:42:13;35.05;;;19.13;;
41333;SDS011;27078;46.428;6.256;2023-03-01T07:44:38;33.35;;;18.30;;
41333;SDS011;27078;46.428;6.256;2023-03-01T07:47:04;37.30;;;19.33;;
41333;SDS011;27078;46.428;6.256;2023-03-01T07:49:29;35.60;;;18.52;;
41333;SDS011;27078;46.428;6.256;2023-03-01T07:51:55;35.53;;;18.98;;
41333;SDS011;27078;46.428;6.256;2023-03-01T07:54:21;36.13;;;18.90;;
41333;SDS011;27078;46.428;6.256;2023-03-01T07:56:46;36.78;;;18.70;;
41333;SDS011;27078;46.428;6.256;2023-03-01T07:59:12;36.65;;;18.98;;
41333;SDS011;27078;46.428;6.256;2023-03-01T08:01:37;37.13;;;19.27;;
41333;SDS011;27078;46.428;6.256;2023-03-01T08:04:03;35.75;;;18.65;;
41333;SDS011;27078;46.428;6.256;2023-03-01T08:06:31;36.17;;;19.30;;
41333;SDS011;27078;46.428;6.256;2023-03-01T08:08:59;38.28;;;19.35;;
41333;SDS011;27078;46.428;6.256;2023-03-01T08:11:24;35.85;;;17.60;;
41333;SDS011;27078;46.428;6.256;2023-03-01T08:13:50;36.13;;;19.48;;
41333;SDS011;27078;46.428;6.256;2023-03-01T08:16:15;33.67;;;18.48;;
41333;SDS011;27078;46.428;6.256;2023-03-01T08:18:41;34.58;;;18.85;;
41333;SDS011;27078;46.428;6.256;2023-03-01T08:21:09;36.70;;;18.75;;
41333;SDS011;27078;46.428;6.256;2023-03-01T08:23:39;34.30;;;18.23;;
41333;SDS011;27078;46.428;6.256;2023-03-01T08:26:09;33.85;;;17.77;;
41333;SDS011;27078;46.428;6.256;2023-03-01T08:28:37;36.22;;;18.52;;
41333;SDS011;27078;46.428;6.256;2023-03-01T08:31:12;32.92;;;18.25;;
41333;SDS011;27078;46.428;6.256;2023-03-01T08:33:39;32.85;;;18.45;;
41333;SDS011;27078;46.428;6.256;2023-03-01T08:36:04;36.45;;;19.40;;
41333;SDS011;27078;46.428;6.256;2023-03-01T08:38:31;34.55;;;18.73;;
41333;SDS011;27078;46.428;6.256;2023-03-01T08:40:59;34.55;;;19.08;;
41333;SDS011;27078;46.428;6.256;2023-03-01T08:43:25;35.10;;;18.52;;
41333;SDS011;27078;46.428;6.256;2023-03-01T08:45:50;34.03;;;19.27;;
41333;SDS011;27078;46.428;6.256;2023-03-01T08:48:15;37.33;;;19.45;;
41333;SDS011;27078;46.428;6.256;2023-03-01T08:50:41;35.72;;;19.13;;
41333;SDS011;27078;46.428;6.256;2023-03-01T08:53:06;34.72;;;18.88;;
41333;SDS011;27078;46.428;6.256;2023-03-01T08:55:31;33.72;;;17.70;;
41333;SDS011;27078;46.428;6.256;2023-03-01T08:57:57;34.33;;;18.30;;
41333;SDS011;27078;46.428;6.256;2023-03-01T09:00:23;32.53;;;18.33;;
41333;SDS011;27078;46.428;6.256;2023-03-01T09:02:49;37.13;;;18.80;;
41333;SDS011;27078;46.428;6.256;2023-03-01T09:05:15;35.53;;;19.55;;
41333;SDS011;27078;46.428;6.256;2023-03-01T09:07:40;34.58;;;18.75;;
41333;SDS011;27078;46.428;6.256;2023-03-01T09:10:06;36.30;;;19.88;;
41333;SDS011;27078;46.428;6.256;2023-03-01T09:12:32;36.20;;;18.63;;
41333;SDS011;27078;46.428;6.256;2023-03-01T09:14:57;33.97;;;18.35;;
41333;SDS011;27078;46.428;6.256;2023-03-01T09:17:22;34.70;;;18.83;;
41333;SDS011;27078;46.428;6.256;2023-03-01T09:19:47;34.83;;;18.73;;
41333;SDS011;27078;46.428;6.256;2023-03-01T09:22:13;36.72;;;19.55;;
41333;SDS011;27078;46.428;6.256;2023-03-01T09:24:39;37.78;;;20.73;;
41333;SDS011;27078;46.428;6.256;2023-03-01T09:27:05;39.88;;;20.30;;
41333;SDS011;27078;46.428;6.256;2023-03-01T09:29:33;35.67;;;18.73;;
41333;SDS011;27078;46.428;6.256;2023-03-01T09:32:00;36.33;;;19.83;;
41333;SDS011;27078;46.428;6.256;2023-03-01T09:34:25;38.53;;;20.48;;
41333;SDS011;27078;46.428;6.256;2023-03-01T09:36:51;35.55;;;19.55;;
41333;SDS011;27078;46.428;6.256;2023-03-01T09:39:16;34.55;;;18.92;;
41333;SDS011;27078;46.428;6.256;2023-03-01T09:41:47;34.15;;;18.52;;
41333;SDS011;27078;46.428;6.256;2023-03-01T09:46:51;34.80;;;18.85;;
41333;SDS011;27078;46.428;6.256;2023-03-01T09:49:18;33.95;;;18.38;;
41333;SDS011;27078;46.428;6.256;2023-03-01T09:55:07;34.72;;;18.48;;
41333;SDS011;27078;46.428;6.256;2023-03-01T09:57:38;35.28;;;19.10;;
41333;SDS011;27078;46.428;6.256;2023-03-01T10:11:48;34.55;;;17.98;;
41333;SDS011;27078;46.428;6.256;2023-03-01T10:20:08;36.70;;;18.30;;
41333;SDS011;27078;46.428;6.256;2023-03-01T10:22:37;33.75;;;18.23;;
41333;SDS011;27078;46.428;6.256;2023-03-01T10:25:03;33.58;;;17.80;;
41333;SDS011;27078;46.428;6.256;2023-03-01T10:30:17;34.38;;;18.38;;
41333;SDS011;27078;46.428;6.256;2023-03-01T10:32:46;34.38;;;18.77;;
41333;SDS011;27078;46.428;6.256;2023-03-01T10:35:17;34.35;;;18.67;;
41333;SDS011;27078;46.428;6.256;2023-03-01T10:37:56;33.70;;;18.30;;
41333;SDS011;27078;46.428;6.256;2023-03-01T10:40:22;33.80;;;18.02;;
41333;SDS011;27078;46.428;6.256;2023-03-01T10:42:48;34.17;;;18.92;;
41333;SDS011;27078;46.428;6.256;2023-03-01T10:50:31;35.10;;;18.73;;
41333;SDS011;27078;46.428;6.256;2023-03-01T10:53:04;33.25;;;18.73;;
41333;SDS011;27078;46.428;6.256;2023-03-01T10:55:36;34.28;;;18.45;;
41333;SDS011;27078;46.428;6.256;2023-03-01T10:58:20;36.50;;;19.50;;
41333;SDS011;27078;46.428;6.256;2023-03-01T11:03:13;36.53;;;19.75;;
41333;SDS011;27078;46.428;6.256;2023-03-01T11:05:52;32.45;;;17.90;;
41333;SDS011;27078;46.428;6.256;2023-03-01T11:08:36;32.17;;;17.98;;
41333;SDS011;27078;46.428;6.256;2023-03-01T11:21:33;32.70;;;17.07;;
41333;SDS011;27078;46.428;6.256;2023-03-01T11:24:02;33.65;;;18.45;;
41333;SDS011;27078;46.428;6.256;2023-03-01T11:26:31;33.08;;;17.80;;
41333;SDS011;27078;46.428;6.256;2023-03-01T11:29:02;33.40;;;18.20;;
41333;SDS011;27078;46.428;6.256;2023-03-01T11:31:32;34.00;;;19.08;;
41333;SDS011;27078;46.428;6.256;2023-03-01T11:34:00;31.80;;;18.13;;
41333;SDS011;27078;46.428;6.256;2023-03-01T11:36:35;33.92;;;19.02;;
41333;SDS011;27078;46.428;6.256;2023-03-01T11:44:54;31.42;;;18.17;;
41333;SDS011;27078;46.428;6.256;2023-03-01T11:50:02;30.38;;;17.08;;
41333;SDS011;27078;46.428;6.256;2023-03-01T12:03:39;33.65;;;18.67;;
41333;SDS011;27078;46.428;6.256;2023-03-01T12:06:12;33.92;;;18.40;;
41333;SDS011;27078;46.428;6.256;2023-03-01T12:11:43;33.38;;;18.88;;
41333;SDS011;27078;46.428;6.256;2023-03-01T12:24:47;34.10;;;19.17;;
41333;SDS011;27078;46.428;6.256;2023-03-01T12:29:59;30.38;;;17.35;;
41333;SDS011;27078;46.428;6.256;2023-03-01T12:35:20;32.42;;;18.02;;
41333;SDS011;27078;46.428;6.256;2023-03-01T12:37:52;32.70;;;17.85;;
41333;SDS011;27078;46.428;6.256;2023-03-01T12:46:20;30.50;;;16.45;;
41333;SDS011;27078;46.428;6.256;2023-03-01T12:49:10;33.58;;;18.35;;
41333;SDS011;27078;46.428;6.256;2023-03-01T12:51:42;31.58;;;17.23;;
41333;SDS011;27078;46.428;6.256;2023-03-01T12:54:26;31.02;;;17.65;;
41333;SDS011;27078;46.428;6.256;2023-03-01T12:56:53;33.40;;;17.73;;
41333;SDS011;27078;46.428;6.256;2023-03-01T13:07:51;30.10;;;17.35;;
41333;SDS011;27078;46.428;6.256;2023-03-01T13:13:26;33.30;;;17.75;;
41333;SDS011;27078;46.428;6.256;2023-03-01T13:15:53;30.38;;;17.52;;
41333;SDS011;27078;46.428;6.256;2023-03-01T13:20:48;31.48;;;17.35;;
41333;SDS011;27078;46.428;6.256;2023-03-01T13:33:57;32.15;;;17.77;;
41333;SDS011;27078;46.428;6.256;2023-03-01T13:44:12;30.00;;;17.48;;
41333;SDS011;27078;46.428;6.256;2023-03-01T13:46:47;28.98;;;16.80;;
41333;SDS011;27078;46.428;6.256;2023-03-01T13:49:14;32.75;;;17.52;;
41333;SDS011;27078;46.428;6.256;2023-03-01T13:51:46;29.80;;;16.88;;
41333;SDS011;27078;46.428;6.256;2023-03-01T13:54:12;31.17;;;17.38;;
41333;SDS011;27078;46.428;6.256;2023-03-01T13:56:40;32.05;;;17.52;;
41333;SDS011;27078;46.428;6.256;2023-03-01T13:59:06;31.85;;;17.20;;
41333;SDS011;27078;46.428;6.256;2023-03-01T14:01:40;32.47;;;18.52;;
41333;SDS011;27078;46.428;6.256;2023-03-01T14:06:52;30.23;;;16.65;;
41333;SDS011;27078;46.428;6.256;2023-03-01T14:09:41;31.75;;;17.30;;
41333;SDS011;27078;46.428;6.256;2023-03-01T14:14:56;30.23;;;16.75;;
41333;SDS011;27078;46.428;6.256;2023-03-01T14:17:34;32.22;;;17.80;;
41333;SDS011;27078;46.428;6.256;2023-03-01T14:20:10;30.58;;;17.40;;
41333;SDS011;27078;46.428;6.256;2023-03-01T14:22:40;30.50;;;17.27;;
41333;SDS011;27078;46.428;6.256;2023-03-01T14:25:21;31.58;;;17.58;;
41333;SDS011;27078;46.428;6.256;2023-03-01T14:28:00;34.88;;;18.08;;
41333;SDS011;27078;46.428;6.256;2023-03-01T14:30:36;36.63;;;20.05;;
41333;SDS011;27078;46.428;6.256;2023-03-01T14:33:05;38.10;;;19.40;;
41333;SDS011;27078;46.428;6.256;2023-03-01T14:35:42;36.85;;;18.77;;
41333;SDS011;27078;46.428;6.256;2023-03-01T14:38:19;50.40;;;25.27;;
41333;SDS011;27078;46.428;6.256;2023-03-01T14:40:46;39.88;;;19.70;;
41333;SDS011;27078;46.428;6.256;2023-03-01T14:43:20;34.80;;;19.45;;
41333;SDS011;27078;46.428;6.256;2023-03-01T14:45:49;35.08;;;19.08;;
41333;SDS011;27078;46.428;6.256;2023-03-01T14:48:19;37.15;;;19.60;;
41333;SDS011;27078;46.428;6.256;2023-03-01T14:50:46;35.50;;;18.88;;
41333;SDS011;27078;46.428;6.256;2023-03-01T14:53:16;34.05;;;18.70;;
41333;SDS011;27078;46.428;6.256;2023-03-01T14:55:46;37.35;;;18.98;;
41333;SDS011;27078;46.428;6.256;2023-03-01T14:58:18;34.45;;;18.88;;
41333;SDS011;27078;46.428;6.256;2023-03-01T15:00:48;36.03;;;19.60;;
41333;SDS011;27078;46.428;6.256;2023-03-01T15:03:23;34.70;;;19.13;;
41333;SDS011;27078;46.428;6.256;2023-03-01T15:05:52;34.10;;;18.77;;
41333;SDS011;27078;46.428;6.256;2023-03-01T15:08:23;33.50;;;19.05;;
41333;SDS011;27078;46.428;6.256;2023-03-01T15:11:03;34.25;;;18.63;;
41333;SDS011;27078;46.428;6.256;2023-03-01T15:13:38;36.67;;;18.92;;
41333;SDS011;27078;46.428;6.256;2023-03-01T15:18:32;36.22;;;18.52;;
41333;SDS011;27078;46.428;6.256;2023-03-01T15:26:54;33.00;;;18.55;;
41333;SDS011;27078;46.428;6.256;2023-03-01T15:29:27;34.03;;;17.88;;
41333;SDS011;27078;46.428;6.256;2023-03-01T15:32:00;33.65;;;18.50;;
41333;SDS011;27078;46.428;6.256;2023-03-01T15:34:30;35.15;;;19.13;;
41333;SDS011;27078;46.428;6.256;2023-03-01T15:37:02;37.40;;;19.33;;
41333;SDS011;27078;46.428;6.256;2023-03-01T15:47:48;35.83;;;19.33;;
41333;SDS011;27078;46.428;6.256;2023-03-01T15:50:17;37.58;;;19.90;;
41333;SDS011;27078;46.428;6.256;2023-03-01T15:52:46;39.83;;;20.25;;
41333;SDS011;27078;46.428;6.256;2023-03-01T15:55:16;42.28;;;21.92;;
41333;SDS011;27078;46.428;6.256;2023-03-01T15:57:44;39.35;;;20.88;;
41333;SDS011;27078;46.428;6.256;2023-03-01T16:00:10;35.75;;;19.13;;
41333;SDS011;27078;46.428;6.256;2023-03-01T16:02:38;37.13;;;19.58;;
41333;SDS011;27078;46.428;6.256;2023-03-01T16:05:04;36.95;;;19.88;;
41333;SDS011;27078;46.428;6.256;2023-03-01T16:07:30;38.20;;;19.75;;
41333;SDS011;27078;46.428;6.256;2023-03-01T16:09:56;39.25;;;20.52;;
41333;SDS011;27078;46.428;6.256;2023-03-01T16:12:21;36.08;;;19.38;;
41333;SDS011;27078;46.428;6.256;2023-03-01T16:14:49;39.03;;;20.00;;
41333;SDS011;27078;46.428;6.256;2023-03-01T16:17:15;39.20;;;20.30;;
41333;SDS011;27078;46.428;6.256;2023-03-01T16:19:40;39.63;;;20.02;;
41333;SDS011;27078;46.428;6.256;2023-03-01T16:22:06;39.72;;;20.38;;
41333;SDS011;27078;46.428;6.256;2023-03-01T16:24:32;36.42;;;19.73;;
41333;SDS011;27078;46.428;6.256;2023-03-01T16:26:57;35.47;;;19.10;;
41333;SDS011;27078;46.428;6.256;2023-03-01T16:29:23;35.53;;;19.75;;
41333;SDS011;27078;46.428;6.256;2023-03-01T16:31:48;33.15;;;18.33;;
41333;SDS011;27078;46.428;6.256;2023-03-01T16:34:13;36.00;;;19.27;;
41333;SDS011;27078;46.428;6.256;2023-03-01T16:36:39;36.50;;;19.55;;
41333;SDS011;27078;46.428;6.256;2023-03-01T16:39:04;35.47;;;18.88;;
41333;SDS011;27078;46.428;6.256;2023-03-01T16:41:31;35.88;;;18.50;;
41333;SDS011;27078;46.428;6.256;2023-03-01T16:43:56;37.72;;;19.23;;
41333;SDS011;27078;46.428;6.256;2023-03-01T16:46:23;36.80;;;19.52;;
41333;SDS011;27078;46.428;6.256;2023-03-01T16:48:50;40.40;;;20.33;;
41333;SDS011;27078;46.428;6.256;2023-03-01T16:51:16;40.03;;;20.73;;
41333;SDS011;27078;46.428;6.256;2023-03-01T16:53:42;38.28;;;20.23;;
41333;SDS011;27078;46.428;6.256;2023-03-01T16:56:09;40.47;;;20.90;;
41333;SDS011;27078;46.428;6.256;2023-03-01T16:58:36;39.85;;;21.48;;
41333;SDS011;27078;46.428;6.256;2023-03-01T17:01:04;35.97;;;19.67;;
41333;SDS011;27078;46.428;6.256;2023-03-01T17:03:32;39.65;;;20.35;;